createdAt,value
2022-10-13T00:00:12.267Z,11.50
2022-10-13T00:02:39.007Z,12.95
2022-10-13T00:05:05.894Z,11.07
2022-10-13T00:07:33.419Z,11.23
2022-10-13T00:10:00.027Z,11.38
2022-10-13T00:12:26.646Z,12.18
2022-10-13T00:14:53.318Z,11.43
2022-10-13T00:17:19.956Z,11.10
2022-10-13T00:19:46.631Z,11.98
2022-10-13T00:22:13.293Z,11.48
2022-10-13T00:24:39.905Z,10.48
2022-10-13T00:27:08.951Z,11.32
2022-10-13T00:29:35.551Z,11.80
2022-10-13T00:32:02.040Z,12.30
2022-10-13T00:34:28.626Z,11.65
2022-10-13T00:36:55.310Z,12.02
2022-10-13T00:39:22.446Z,11.93
2022-10-13T00:41:48.952Z,11.70
2022-10-13T00:44:52.958Z,13.23
2022-10-13T00:47:20.957Z,11.68
2022-10-13T00:49:49.951Z,11.52
2022-10-13T00:52:18.952Z,12.40
2022-10-13T00:54:46.777Z,11.65
2022-10-13T00:57:13.520Z,11.95
2022-10-13T00:59:41.008Z,12.25
2022-10-13T01:02:08.680Z,11.82
2022-10-13T01:04:39.822Z,11.18
2022-10-13T01:07:06.713Z,12.45
2022-10-13T01:09:37.877Z,11.75
2022-10-13T01:12:13.698Z,12.00
2022-10-13T01:15:01.557Z,11.52
2022-10-13T01:17:59.625Z,12.55
2022-10-13T01:20:45.141Z,12.40
2022-10-13T01:23:28.763Z,10.95
2022-10-13T01:26:26.894Z,12.70
2022-10-13T01:29:12.862Z,13.02
2022-10-13T01:32:06.233Z,13.13
2022-10-13T01:34:52.407Z,12.10
2022-10-13T01:37:24.725Z,13.13
2022-10-13T01:40:06.827Z,12.10
2022-10-13T01:42:46.801Z,12.35
2022-10-13T01:45:17.534Z,13.73
2022-10-13T01:47:45.813Z,13.68
2022-10-13T01:50:15.904Z,12.80
2022-10-13T01:52:43.074Z,13.00
2022-10-13T01:55:12.409Z,13.50
2022-10-13T01:57:44.217Z,13.20
2022-10-13T02:00:12.823Z,13.50
2022-10-13T02:03:17.666Z,14.10
2022-10-13T02:06:00.357Z,12.52
2022-10-13T02:08:39.003Z,13.05
2022-10-13T02:11:15.236Z,13.20
2022-10-13T02:13:49.657Z,14.25
2022-10-13T02:16:17.107Z,12.88
2022-10-13T02:18:44.434Z,14.18
2022-10-13T02:21:11.430Z,14.63
2022-10-13T02:23:38.287Z,13.55
2022-10-13T02:26:05.238Z,13.00
2022-10-13T02:28:31.891Z,14.10
2022-10-13T02:30:58.873Z,13.98
2022-10-13T02:33:25.501Z,13.77
2022-10-13T02:35:52.668Z,13.63
2022-10-13T02:38:19.435Z,13.60
2022-10-13T02:40:46.025Z,14.05
2022-10-13T02:43:12.560Z,13.02
2022-10-13T02:45:39.162Z,13.02
2022-10-13T02:48:05.875Z,13.70
2022-10-13T02:50:32.455Z,14.63
2022-10-13T02:52:59.544Z,13.63
2022-10-13T02:55:26.296Z,14.63
2022-10-13T02:57:52.909Z,14.52
2022-10-13T03:00:20.016Z,13.05
2022-10-13T03:02:46.699Z,14.13
2022-10-13T03:05:13.574Z,14.48
2022-10-13T03:07:40.210Z,13.43
2022-10-13T03:10:06.999Z,13.20
2022-10-13T03:12:33.704Z,13.77
2022-10-13T03:15:00.795Z,13.27
2022-10-13T03:17:27.373Z,13.25
2022-10-13T03:19:54.439Z,12.95
2022-10-13T03:22:21.493Z,13.70
2022-10-13T03:24:48.252Z,14.60
2022-10-13T03:27:15.694Z,13.70
2022-10-13T03:29:42.297Z,13.15
2022-10-13T03:32:09.238Z,13.52
2022-10-13T03:34:35.755Z,13.27
2022-10-13T03:37:02.393Z,12.93
2022-10-13T03:39:28.960Z,14.55
2022-10-13T03:41:55.539Z,12.88
2022-10-13T03:44:22.258Z,13.20
2022-10-13T03:46:48.841Z,12.98
2022-10-13T03:49:15.736Z,14.52
2022-10-13T03:51:42.374Z,14.25
2022-10-13T03:54:12.037Z,13.38
2022-10-13T03:56:39.754Z,13.80
2022-10-13T03:59:06.738Z,14.50
2022-10-13T04:01:34.332Z,14.02
2022-10-13T04:04:03.040Z,13.93
2022-10-13T04:06:30.525Z,13.77
2022-10-13T04:08:57.792Z,14.27
2022-10-13T04:11:24.598Z,14.13
2022-10-13T04:13:52.509Z,13.52
2022-10-13T04:16:26.110Z,13.35
2022-10-13T04:18:55.864Z,13.38
2022-10-13T04:21:23.757Z,13.77
2022-10-13T04:23:50.396Z,13.43
2022-10-13T04:26:19.509Z,13.80
2022-10-13T04:28:47.636Z,13.40
2022-10-13T04:31:14.614Z,14.25
2022-10-13T04:33:41.319Z,13.13
2022-10-13T04:36:09.495Z,13.90
2022-10-13T04:38:36.013Z,13.15
2022-10-13T04:41:04.658Z,12.73
2022-10-13T04:43:31.822Z,12.77
2022-10-13T04:46:15.508Z,12.85
2022-10-13T04:48:42.665Z,13.07
2022-10-13T04:51:12.870Z,14.48
2022-10-13T04:53:41.046Z,12.77
2022-10-13T04:56:10.472Z,13.93
2022-10-13T05:01:06.653Z,13.02
2022-10-13T05:03:34.243Z,12.43
2022-10-13T05:06:01.557Z,12.93
2022-10-13T05:08:28.181Z,12.68
2022-10-13T05:10:54.834Z,12.02
2022-10-13T05:13:21.511Z,12.85
2022-10-13T05:15:48.061Z,13.27
2022-10-13T05:18:14.571Z,12.20
2022-10-13T05:20:41.474Z,13.18
2022-10-13T05:23:07.982Z,14.45
2022-10-13T05:25:35.877Z,12.50
2022-10-13T05:28:04.162Z,12.95
2022-10-13T05:30:31.303Z,14.27
2022-10-13T05:32:58.185Z,13.63
2022-10-13T05:35:25.634Z,13.68
2022-10-13T05:37:52.119Z,13.15
2022-10-13T05:40:21.223Z,12.70
2022-10-13T05:42:50.771Z,13.55
2022-10-13T05:47:44.731Z,12.90
2022-10-13T05:50:11.575Z,12.85
2022-10-13T05:52:38.551Z,14.15
2022-10-13T05:55:08.505Z,12.15
2022-10-13T05:57:42.013Z,13.50
2022-10-13T06:00:15.142Z,12.00
2022-10-13T06:03:10.161Z,14.38
2022-10-13T06:05:37.060Z,12.80
2022-10-13T06:08:03.657Z,13.23
2022-10-13T06:10:30.503Z,12.88
2022-10-13T06:12:56.986Z,14.43
2022-10-13T06:15:27.995Z,13.27
2022-10-13T06:17:54.814Z,14.38
2022-10-13T06:20:21.502Z,14.45
2022-10-13T06:22:50.031Z,13.80
2022-10-13T06:25:16.747Z,14.07
2022-10-13T06:27:43.556Z,12.20
2022-10-13T06:30:10.315Z,13.13
2022-10-13T06:32:36.797Z,13.57
2022-10-13T06:35:03.704Z,13.90
2022-10-13T06:37:30.579Z,12.25
2022-10-13T06:39:57.054Z,13.90
2022-10-13T06:42:23.708Z,13.52
2022-10-13T06:44:50.810Z,13.65
2022-10-13T06:47:17.722Z,13.48
2022-10-13T06:49:44.199Z,14.52
2022-10-13T06:52:10.784Z,13.68
2022-10-13T06:54:37.365Z,13.35
2022-10-13T06:57:06.007Z,13.65
2022-10-13T06:59:32.516Z,14.13
2022-10-13T07:01:59.193Z,14.80
2022-10-13T07:04:27.851Z,12.45
2022-10-13T07:06:54.365Z,12.53
2022-10-13T07:09:20.859Z,13.05
2022-10-13T07:11:47.783Z,13.57
2022-10-13T07:14:14.359Z,12.98
2022-10-13T07:16:41.671Z,13.10
2022-10-13T07:19:08.294Z,12.63
2022-10-13T07:21:34.792Z,11.82
2022-10-13T07:24:02.863Z,12.90
2022-10-13T07:26:29.595Z,11.60
2022-10-13T07:28:56.407Z,12.43
2022-10-13T07:31:22.935Z,12.45
2022-10-13T07:33:50.578Z,13.18
2022-10-13T07:36:18.166Z,14.23
2022-10-13T07:38:44.976Z,13.30
2022-10-13T07:41:12.477Z,12.45
2022-10-13T07:43:39.239Z,12.25
2022-10-13T07:46:07.581Z,12.73
2022-10-13T07:48:34.672Z,12.07
2022-10-13T07:51:05.362Z,12.90
2022-10-13T07:53:31.985Z,13.38
2022-10-13T07:56:03.273Z,12.18
2022-10-13T07:58:29.779Z,13.82
2022-10-13T08:01:00.927Z,12.15
2022-10-13T08:03:28.487Z,13.30
2022-10-13T08:05:55.743Z,13.43
2022-10-13T08:08:22.394Z,13.18
2022-10-13T08:10:49.089Z,12.32
2022-10-13T08:13:15.773Z,12.65
2022-10-13T08:15:44.058Z,13.57
2022-10-13T08:18:12.149Z,13.35
2022-10-13T08:20:43.974Z,13.55
2022-10-13T08:23:13.958Z,12.20
2022-10-13T08:25:42.449Z,13.00
2022-10-13T08:28:21.337Z,12.77
2022-10-13T08:30:48.428Z,13.02
2022-10-13T08:33:14.933Z,13.18
2022-10-13T08:35:42.398Z,12.27
2022-10-13T08:38:09.194Z,12.82
2022-10-13T08:40:37.074Z,13.82
2022-10-13T08:43:15.702Z,13.60
2022-10-13T08:45:42.579Z,13.50
2022-10-13T08:48:15.624Z,12.75
2022-10-13T08:50:45.535Z,12.88
2022-10-13T08:53:19.045Z,12.98
2022-10-13T08:56:20.428Z,12.35
2022-10-13T08:58:49.083Z,11.60
2022-10-13T09:01:29.551Z,12.30
2022-10-13T09:04:26.886Z,12.35
2022-10-13T09:07:03.438Z,12.60
2022-10-13T09:09:30.027Z,11.77
2022-10-13T09:11:58.070Z,13.73
2022-10-13T09:14:36.976Z,11.98
2022-10-13T09:17:17.365Z,11.77
2022-10-13T09:19:46.194Z,12.40
2022-10-13T09:22:22.118Z,12.25
2022-10-13T09:25:11.407Z,12.98
2022-10-13T09:27:44.129Z,12.45
2022-10-13T09:30:42.318Z,11.88
2022-10-13T09:33:09.019Z,12.38
2022-10-13T09:36:04.655Z,11.65
2022-10-13T09:38:31.182Z,11.88
2022-10-13T09:41:06.450Z,12.18
2022-10-13T09:43:54.643Z,12.38
2022-10-13T09:46:25.625Z,11.23
2022-10-13T09:48:55.184Z,11.52
2022-10-13T09:51:33.824Z,13.30
2022-10-13T09:56:41.962Z,12.23
2022-10-13T09:59:33.892Z,11.55
2022-10-13T10:02:26.591Z,11.95
2022-10-13T10:04:56.681Z,12.40
2022-10-13T10:07:30.198Z,11.98
2022-10-13T10:10:05.313Z,12.32
2022-10-13T10:12:36.842Z,11.35
2022-10-13T10:15:17.068Z,11.48
2022-10-13T10:18:03.403Z,11.18
2022-10-13T10:20:41.665Z,12.48
2022-10-13T10:23:37.194Z,11.25
2022-10-13T10:26:18.204Z,11.73
2022-10-13T10:29:15.877Z,10.90
2022-10-13T10:31:59.818Z,11.82
2022-10-13T10:34:37.000Z,11.52
2022-10-13T10:37:26.319Z,11.50
2022-10-13T10:40:09.393Z,11.07
2022-10-13T10:42:47.283Z,10.88
2022-10-13T10:45:20.354Z,9.73
2022-10-13T10:47:51.146Z,10.82
2022-10-13T10:50:18.928Z,9.73
2022-10-13T10:53:12.805Z,9.38
2022-10-13T10:55:52.990Z,9.95
2022-10-13T10:58:44.217Z,9.90
2022-10-13T11:02:02.902Z,9.70
2022-10-13T11:04:47.258Z,9.32
2022-10-13T11:07:22.970Z,9.32
2022-10-13T11:10:19.019Z,8.23
2022-10-13T11:12:52.588Z,8.48
2022-10-13T11:15:23.806Z,8.00
2022-10-13T11:17:50.425Z,8.02
2022-10-13T11:20:16.825Z,8.45
2022-10-13T11:23:03.143Z,7.70
2022-10-13T11:25:40.423Z,8.40
2022-10-13T11:28:22.181Z,8.73
2022-10-13T11:30:52.732Z,8.15
2022-10-13T11:33:38.071Z,7.68
2022-10-13T11:36:30.472Z,7.60
2022-10-13T11:39:39.811Z,7.97
2022-10-13T11:42:12.340Z,7.25
2022-10-13T11:44:57.448Z,7.85
2022-10-13T11:47:56.532Z,7.05
2022-10-13T11:50:52.558Z,5.90
2022-10-13T11:53:32.618Z,5.63
2022-10-13T11:56:03.352Z,5.28
2022-10-13T11:58:32.965Z,4.78
2022-10-13T12:03:31.413Z,5.40
2022-10-13T12:06:04.401Z,4.97
2022-10-13T12:08:33.522Z,5.43
2022-10-13T12:11:04.530Z,5.53
2022-10-13T12:13:33.226Z,5.65
2022-10-13T12:16:06.349Z,6.03
2022-10-13T12:18:36.527Z,5.82
2022-10-13T12:21:09.416Z,6.63
2022-10-13T12:23:36.317Z,6.07
2022-10-13T12:26:03.452Z,7.13
2022-10-13T12:28:47.006Z,6.50
2022-10-13T12:31:30.546Z,7.43
2022-10-13T12:34:01.974Z,6.55
2022-10-13T12:36:31.963Z,6.55
2022-10-13T12:39:02.388Z,6.68
2022-10-13T12:41:34.125Z,6.07
2022-10-13T12:44:03.953Z,6.32
2022-10-13T12:46:36.827Z,6.68
2022-10-13T12:49:13.794Z,5.95
2022-10-13T12:51:41.386Z,6.22
2022-10-13T12:54:18.071Z,6.53
2022-10-13T12:56:45.076Z,5.90
2022-10-13T12:59:20.650Z,6.32
2022-10-13T13:01:58.252Z,6.40
2022-10-13T13:04:41.117Z,7.30
2022-10-13T13:07:28.357Z,6.78
2022-10-13T13:10:07.949Z,7.72
2022-10-13T13:12:36.174Z,7.88
2022-10-13T13:15:34.693Z,7.93
2022-10-13T13:18:26.332Z,8.48
2022-10-13T13:20:56.518Z,7.70
2022-10-13T13:23:23.667Z,7.65
2022-10-13T13:26:13.857Z,8.02
2022-10-13T13:28:45.417Z,8.27
2022-10-13T13:31:13.194Z,8.88
2022-10-13T13:33:40.224Z,8.38
2022-10-13T13:36:19.041Z,8.80
2022-10-13T13:38:45.877Z,7.72
2022-10-13T13:41:13.153Z,7.60
2022-10-13T13:43:40.768Z,7.95
2022-10-13T13:46:14.346Z,8.35
2022-10-13T13:48:40.979Z,8.35
2022-10-13T13:51:09.490Z,8.32
2022-10-13T13:53:36.014Z,7.78
2022-10-13T13:56:02.809Z,8.02
2022-10-13T13:58:29.356Z,7.57
2022-10-13T14:00:55.862Z,7.57
2022-10-13T14:03:22.460Z,7.32
2022-10-13T14:05:49.170Z,8.50
2022-10-13T14:08:15.633Z,8.48
2022-10-13T14:10:42.189Z,7.68
2022-10-13T14:13:08.723Z,8.18
2022-10-13T14:15:35.266Z,8.43
2022-10-13T14:18:01.930Z,9.00
2022-10-13T14:20:28.526Z,9.70
2022-10-13T14:22:55.041Z,9.60
2022-10-13T14:25:21.671Z,8.60
2022-10-13T14:27:48.250Z,9.07
2022-10-13T14:30:14.742Z,9.68
2022-10-13T14:32:41.305Z,10.05
2022-10-13T14:35:08.351Z,9.52
2022-10-13T14:37:35.427Z,9.70
2022-10-13T14:40:02.228Z,9.95
2022-10-13T14:42:28.774Z,10.05
2022-10-13T14:44:55.279Z,9.65
2022-10-13T14:47:22.318Z,9.80
2022-10-13T14:49:49.203Z,9.43
2022-10-13T14:52:15.775Z,9.45
2022-10-13T14:54:44.865Z,10.05
2022-10-13T14:57:15.648Z,10.30
2022-10-13T14:59:42.518Z,9.43
2022-10-13T15:02:10.571Z,10.23
2022-10-13T15:04:37.110Z,9.35
2022-10-13T15:07:03.630Z,8.50
2022-10-13T15:09:44.965Z,9.25
2022-10-13T15:12:16.844Z,8.50
2022-10-13T15:14:43.390Z,8.38
2022-10-13T15:17:09.917Z,8.07
2022-10-13T15:19:37.472Z,7.70
2022-10-13T15:22:03.968Z,7.78
2022-10-13T15:24:30.599Z,8.25
2022-10-13T15:26:59.980Z,7.28
2022-10-13T15:29:26.476Z,7.82
2022-10-13T15:32:08.165Z,8.27
2022-10-13T15:34:34.701Z,8.25
2022-10-13T15:37:01.237Z,8.38
2022-10-13T15:39:27.807Z,9.23
2022-10-13T15:41:54.397Z,9.50
2022-10-13T15:44:21.738Z,9.48
2022-10-13T15:47:06.779Z,10.07
2022-10-13T15:49:39.155Z,9.80
2022-10-13T15:52:05.753Z,9.60
2022-10-13T15:54:32.297Z,8.95
2022-10-13T15:56:59.460Z,8.73
2022-10-13T15:59:25.940Z,8.77
2022-10-13T16:01:52.593Z,9.38
2022-10-13T16:04:19.110Z,9.57
2022-10-13T16:06:45.811Z,9.60
2022-10-13T16:09:12.362Z,10.65
2022-10-13T16:11:39.330Z,11.02
2022-10-13T16:14:05.901Z,13.20
2022-10-13T16:16:32.417Z,11.70
2022-10-13T16:19:00.089Z,12.45
2022-10-13T16:21:26.959Z,12.63
2022-10-13T16:23:53.663Z,11.30
2022-10-13T16:26:20.836Z,11.23
2022-10-13T16:28:47.625Z,11.73
2022-10-13T16:31:17.113Z,10.82
2022-10-13T16:33:44.925Z,11.45
2022-10-13T16:36:18.589Z,10.90
2022-10-13T16:38:46.649Z,12.52
2022-10-13T16:41:15.733Z,12.25
2022-10-13T16:43:42.994Z,12.60
2022-10-13T16:46:12.945Z,10.35
2022-10-13T16:48:40.919Z,10.65
2022-10-13T16:51:09.912Z,10.35
2022-10-13T16:53:36.751Z,11.38
2022-10-13T16:56:04.519Z,10.48
2022-10-13T16:58:31.586Z,11.88
2022-10-13T17:01:06.111Z,11.35
2022-10-13T17:03:32.671Z,10.90
2022-10-13T17:05:59.190Z,10.77
2022-10-13T17:08:25.707Z,11.38
2022-10-13T17:10:57.992Z,10.68
2022-10-13T17:13:25.259Z,11.10
2022-10-13T17:15:53.118Z,10.27
2022-10-13T17:18:20.271Z,11.77
2022-10-13T17:21:01.457Z,10.70
2022-10-13T17:23:29.426Z,10.00
2022-10-13T17:26:03.143Z,9.45
2022-10-13T17:28:29.696Z,10.13
2022-10-13T17:31:09.348Z,10.73
2022-10-13T17:33:37.619Z,11.45
2022-10-13T17:36:08.225Z,11.38
2022-10-13T17:38:34.750Z,11.65
2022-10-13T17:41:03.135Z,11.27
2022-10-13T17:43:30.375Z,11.40
2022-10-13T17:46:42.098Z,11.18
2022-10-13T17:49:11.556Z,10.98
2022-10-13T17:54:05.735Z,12.98
2022-10-13T17:56:32.600Z,12.65
2022-10-13T17:59:00.802Z,12.65
2022-10-13T18:01:32.698Z,13.75
2022-10-13T18:04:06.206Z,15.38
2022-10-13T18:06:43.605Z,15.60
2022-10-13T18:09:12.222Z,13.90
2022-10-13T18:11:40.272Z,12.70
2022-10-13T18:14:07.341Z,12.43
2022-10-13T18:16:33.997Z,10.02
2022-10-13T18:19:00.612Z,9.68
2022-10-13T18:21:27.262Z,8.68
2022-10-13T18:23:55.861Z,10.15
2022-10-13T18:26:24.902Z,9.80
2022-10-13T18:28:52.760Z,10.50
2022-10-13T18:31:24.238Z,9.75
2022-10-13T18:33:51.847Z,11.15
2022-10-13T18:36:23.296Z,10.65
2022-10-13T18:38:51.302Z,11.40
2022-10-13T18:41:22.735Z,10.43
2022-10-13T18:43:50.196Z,9.77
2022-10-13T18:46:16.774Z,10.90
2022-10-13T18:48:43.355Z,10.02
2022-10-13T18:51:13.860Z,10.85
2022-10-13T18:53:43.011Z,10.13
2022-10-13T18:56:13.489Z,9.45
2022-10-13T18:58:40.621Z,9.77
2022-10-13T19:01:10.411Z,9.80
2022-10-13T19:03:39.838Z,9.52
2022-10-13T19:06:12.308Z,9.48
2022-10-13T19:08:39.231Z,8.73
2022-10-13T19:11:21.172Z,8.25
2022-10-13T19:13:52.165Z,7.53
2022-10-13T19:16:26.190Z,7.85
2022-10-13T19:19:02.874Z,6.75
2022-10-13T19:21:34.703Z,7.28
2022-10-13T19:24:01.670Z,7.40
2022-10-13T19:26:32.777Z,6.70
2022-10-13T19:29:05.794Z,6.32
2022-10-13T19:31:35.537Z,6.53
2022-10-13T19:34:02.713Z,5.97
2022-10-13T19:36:35.324Z,6.60
2022-10-13T19:39:05.394Z,5.68
2022-10-13T19:41:32.386Z,6.18
2022-10-13T19:44:00.288Z,5.85
2022-10-13T19:46:28.466Z,5.57
2022-10-13T19:48:55.792Z,5.60
2022-10-13T19:51:22.452Z,5.88
2022-10-13T19:53:49.088Z,5.30
2022-10-13T19:56:21.797Z,5.10
2022-10-13T19:58:48.502Z,4.82
2022-10-13T20:01:16.252Z,5.70
2022-10-13T20:03:42.851Z,4.63
2022-10-13T20:06:10.823Z,4.82
2022-10-13T20:08:37.616Z,4.57
2022-10-13T20:11:13.562Z,5.10
2022-10-13T20:13:40.273Z,5.18
2022-10-13T20:16:10.268Z,5.47
2022-10-13T20:18:37.639Z,5.05
2022-10-13T20:21:05.929Z,4.55
2022-10-13T20:23:33.158Z,5.32
2022-10-13T20:26:05.628Z,5.40
2022-10-13T20:28:33.212Z,6.05
2022-10-13T20:31:03.898Z,5.43
2022-10-13T20:33:31.380Z,4.88
2022-10-13T20:35:59.880Z,5.00
2022-10-13T20:38:26.992Z,5.32
2022-10-13T20:40:53.630Z,5.10
2022-10-13T20:43:24.855Z,5.68
2022-10-13T20:45:59.655Z,5.70
2022-10-13T20:48:36.677Z,6.63
2022-10-13T20:51:14.211Z,11.52
2022-10-13T20:53:43.575Z,15.02
2022-10-13T20:56:15.506Z,10.38
2022-10-13T20:58:42.618Z,9.43
2022-10-13T21:01:10.006Z,8.68
2022-10-13T21:03:38.495Z,7.20
2022-10-13T21:06:07.628Z,7.55
2022-10-13T21:08:34.734Z,6.05
2022-10-13T21:11:07.960Z,5.68
2022-10-13T21:13:34.947Z,5.63
2022-10-13T21:16:23.976Z,6.05
2022-10-13T21:18:51.855Z,7.53
2022-10-13T21:21:24.985Z,10.18
2022-10-13T21:24:00.327Z,7.90
2022-10-13T21:26:31.833Z,7.13
2022-10-13T21:28:58.983Z,6.35
2022-10-13T21:31:26.834Z,6.50
2022-10-13T21:33:54.362Z,6.45
2022-10-13T21:36:24.633Z,6.38
2022-10-13T21:38:53.686Z,6.35
2022-10-13T21:41:21.263Z,6.63
2022-10-13T21:43:49.623Z,6.55
2022-10-13T21:46:23.795Z,5.88
2022-10-13T21:48:53.234Z,5.93
2022-10-13T21:51:25.295Z,6.00
2022-10-13T21:53:54.862Z,6.22
2022-10-13T21:58:49.047Z,6.38
2022-10-13T22:01:19.747Z,6.53
2022-10-13T22:03:47.665Z,6.40
2022-10-13T22:06:18.991Z,6.38
2022-10-13T22:08:48.392Z,6.75
2022-10-13T22:11:15.648Z,6.97
2022-10-13T22:13:42.249Z,6.88
2022-10-13T22:16:12.125Z,6.78
2022-10-13T22:18:39.023Z,6.10
2022-10-13T22:21:08.224Z,6.78
2022-10-13T22:23:34.754Z,6.43
2022-10-13T22:26:01.506Z,5.90
2022-10-13T22:28:28.252Z,6.15
2022-10-13T22:30:56.102Z,6.32
2022-10-13T22:33:22.688Z,6.45
2022-10-13T22:35:49.204Z,7.40
2022-10-13T22:38:15.787Z,6.72
2022-10-13T22:40:42.300Z,7.15
2022-10-13T22:43:08.818Z,6.75
2022-10-13T22:45:35.352Z,7.75
2022-10-13T22:48:02.180Z,7.13
2022-10-13T22:50:29.043Z,7.00
2022-10-13T22:52:55.684Z,7.43
2022-10-13T22:55:22.592Z,7.32
2022-10-13T22:57:49.081Z,7.15
2022-10-13T23:00:16.269Z,7.18
2022-10-13T23:02:42.837Z,7.57
2022-10-13T23:05:09.417Z,7.85
2022-10-13T23:07:35.947Z,7.88
2022-10-13T23:10:02.485Z,8.20
2022-10-13T23:12:29.034Z,7.70
2022-10-13T23:14:55.527Z,7.22
2022-10-13T23:17:22.368Z,7.35
2022-10-13T23:19:49.087Z,7.93
2022-10-13T23:22:15.588Z,8.27
2022-10-13T23:24:42.154Z,7.95
2022-10-13T23:27:08.668Z,7.88
2022-10-13T23:29:35.171Z,8.27
2022-10-13T23:32:04.154Z,8.05
2022-10-13T23:34:33.182Z,7.68
2022-10-13T23:36:59.784Z,7.88
2022-10-13T23:48:47.722Z,8.10
2022-10-13T23:51:20.881Z,7.85
2022-10-13T23:53:47.757Z,8.25
2022-10-13T23:56:14.274Z,8.25
2022-10-13T23:58:42.466Z,8.55
